Time;durP1;ratioP1;P1;durP2;ratioP2;P2;SDS_P1;SDS_P2;PMS_P1;PMS_P2;Temp;Humidity;BMP_temperature;BMP_pressure;BME280_temperature;BME280_humidity;BME280_pressure;Samples;Min_cycle;Max_cycle;Signal;HPM_P1;HPM_P2
2023/06/11 00:01:58;;;;;;;8.00;5.63;;;;;;;;;;5098084;28;20044;-72
2023/06/11 00:04:25;;;;;;;8.23;5.45;;;;;;;;;;5097914;28;20134;-72
2023/06/11 00:06:56;;;;;;;11.63;6.40;;;;;;;;;;5080989;28;20043;-73
2023/06/11 00:09:25;;;;;;;9.30;6.07;;;;;;;;;;5115765;28;20131;-72
2023/06/11 00:11:53;;;;;;;10.95;6.07;;;;;;;;;;5115786;28;20126;-72
2023/06/11 00:14:20;;;;;;;11.60;6.45;;;;;;;;;;5097837;28;20054;-73
2023/06/11 00:16:46;;;;;;;9.10;5.80;;;;;;;;;;5097506;28;20043;-72
2023/06/11 00:19:12;;;;;;;14.23;6.60;;;;;;;;;;5098467;28;20047;-72
2023/06/11 00:21:43;;;;;;;12.10;7.15;;;;;;;;;;5097469;28;20066;-72
2023/06/11 00:24:14;;;;;;;13.15;7.82;;;;;;;;;;5116474;28;20119;-73
2023/06/11 00:26:40;;;;;;;12.15;6.93;;;;;;;;;;5115240;28;20535;-73
2023/06/11 00:29:07;;;;;;;9.77;6.85;;;;;;;;;;5080259;28;20046;-73
2023/06/11 00:31:33;;;;;;;10.70;7.10;;;;;;;;;;5097393;28;20506;-73
2023/06/11 00:34:00;;;;;;;11.25;7.40;;;;;;;;;;5115440;28;20082;-72
2023/06/11 00:36:26;;;;;;;9.35;6.68;;;;;;;;;;5097412;28;20079;-73
2023/06/11 00:38:53;;;;;;;15.23;7.93;;;;;;;;;;5097115;28;20059;-72
2023/06/11 00:41:20;;;;;;;11.73;7.28;;;;;;;;;;5115384;28;20162;-73
2023/06/11 00:43:48;;;;;;;14.32;8.18;;;;;;;;;;5115617;28;20067;-71
2023/06/11 00:46:16;;;;;;;11.73;7.20;;;;;;;;;;5115339;28;20374;-73
2023/06/11 00:48:42;;;;;;;12.63;8.02;;;;;;;;;;5096702;28;20044;-72
2023/06/11 00:51:10;;;;;;;11.60;8.07;;;;;;;;;;5115037;28;20399;-73
2023/06/11 00:53:37;;;;;;;11.75;7.72;;;;;;;;;;5115614;28;20054;-74
2023/06/11 00:56:03;;;;;;;14.15;7.93;;;;;;;;;;5115265;28;20129;-74
2023/06/11 00:58:30;;;;;;;13.02;7.80;;;;;;;;;;5097058;28;20083;-73
2023/06/11 01:00:58;;;;;;;12.93;7.70;;;;;;;;;;5096569;28;20439;-72
2023/06/11 01:03:26;;;;;;;14.20;8.10;;;;;;;;;;5115561;28;20071;-72
2023/06/11 01:06:11;;;;;;;12.85;7.85;;;;;;;;;;5096480;28;20051;-72
2023/06/11 01:08:41;;;;;;;10.40;7.70;;;;;;;;;;5096731;28;20423;-71
2023/06/11 01:11:13;;;;;;;11.63;7.90;;;;;;;;;;5079632;28;20101;-73
2023/06/11 01:13:40;;;;;;;12.90;7.75;;;;;;;;;;5114908;28;20047;-73
2023/06/11 01:16:16;;;;;;;12.45;7.75;;;;;;;;;;5080192;28;20381;-74
2023/06/11 01:18:53;;;;;;;12.10;7.72;;;;;;;;;;5096144;28;20063;-74
2023/06/11 01:21:22;;;;;;;15.80;8.63;;;;;;;;;;5114543;28;20051;-74
2023/06/11 01:24:00;;;;;;;11.43;8.10;;;;;;;;;;5096950;28;20062;-73
2023/06/11 01:26:27;;;;;;;12.20;8.10;;;;;;;;;;5114180;28;20130;-73
2023/06/11 01:28:58;;;;;;;11.95;7.88;;;;;;;;;;5114160;28;20059;-72
2023/06/11 01:31:29;;;;;;;11.27;8.07;;;;;;;;;;5114543;28;20122;-73
2023/06/11 01:33:56;;;;;;;12.60;7.63;;;;;;;;;;5114247;28;20164;-73
2023/06/11 01:36:28;;;;;;;10.90;7.45;;;;;;;;;;5114357;28;20510;-73
2023/06/11 01:38:55;;;;;;;14.77;7.55;;;;;;;;;;5096542;28;20086;-73
2023/06/11 01:41:21;;;;;;;9.80;7.68;;;;;;;;;;5114048;28;20043;-73
2023/06/11 01:43:47;;;;;;;10.73;7.50;;;;;;;;;;5095856;28;20177;-73
2023/06/11 01:46:13;;;;;;;11.00;7.88;;;;;;;;;;5079196;28;20329;-72
2023/06/11 01:48:39;;;;;;;12.98;7.82;;;;;;;;;;5096072;28;20055;-74
2023/06/11 01:51:06;;;;;;;12.60;7.75;;;;;;;;;;5079096;28;20044;-73
2023/06/11 01:53:33;;;;;;;10.30;8.00;;;;;;;;;;5113988;28;20055;-73
2023/06/11 01:55:59;;;;;;;12.32;7.75;;;;;;;;;;5096027;28;20047;-73
2023/06/11 01:58:25;;;;;;;12.60;8.63;;;;;;;;;;5095796;28;20397;-72
2023/06/11 02:00:51;;;;;;;12.73;7.70;;;;;;;;;;5079320;28;20051;-74
2023/06/11 02:03:17;;;;;;;13.73;7.93;;;;;;;;;;5095902;28;20289;-74
2023/06/11 02:05:43;;;;;;;12.48;8.18;;;;;;;;;;5095529;28;20388;-74
2023/06/11 02:08:10;;;;;;;13.10;8.35;;;;;;;;;;5114238;28;20389;-74
2023/06/11 02:10:36;;;;;;;10.57;8.02;;;;;;;;;;5095682;28;20392;-75
2023/06/11 02:13:03;;;;;;;12.13;7.80;;;;;;;;;;5095660;28;20100;-74
2023/06/11 02:15:29;;;;;;;11.40;8.00;;;;;;;;;;5079023;28;20052;-73
2023/06/11 02:17:55;;;;;;;11.98;7.63;;;;;;;;;;5095687;28;20051;-74
2023/06/11 02:20:21;;;;;;;13.05;7.85;;;;;;;;;;5095704;28;20044;-74
2023/06/11 02:22:47;;;;;;;10.90;7.95;;;;;;;;;;5113515;28;20082;-73
2023/06/11 02:25:13;;;;;;;12.95;8.18;;;;;;;;;;5113430;28;20039;-74
2023/06/11 02:27:39;;;;;;;11.25;8.65;;;;;;;;;;5096043;28;20044;-74
2023/06/11 02:30:07;;;;;;;11.95;8.05;;;;;;;;;;5095115;28;20043;-74
2023/06/11 02:32:33;;;;;;;12.18;8.13;;;;;;;;;;5096181;28;20379;-74
2023/06/11 02:34:59;;;;;;;11.35;7.97;;;;;;;;;;5078417;28;20047;-74
2023/06/11 02:37:26;;;;;;;11.95;8.10;;;;;;;;;;5113488;28;20051;-74
2023/06/11 02:39:52;;;;;;;12.88;7.80;;;;;;;;;;5113453;28;20079;-74
2023/06/11 02:42:18;;;;;;;10.77;8.10;;;;;;;;;;5095541;28;20397;-73
2023/06/11 02:44:44;;;;;;;12.57;7.63;;;;;;;;;;5095158;28;20443;-74
2023/06/11 02:47:10;;;;;;;13.40;7.95;;;;;;;;;;5095502;28;20053;-74
2023/06/11 02:49:36;;;;;;;14.18;8.77;;;;;;;;;;5097392;28;20456;-74
2023/06/11 02:52:03;;;;;;;11.53;8.07;;;;;;;;;;5117377;28;20101;-73
2023/06/11 02:54:29;;;;;;;12.80;8.77;;;;;;;;;;5117227;28;20319;-74
2023/06/11 02:56:55;;;;;;;10.57;7.93;;;;;;;;;;5099468;28;20040;-74
2023/06/11 02:59:21;;;;;;;11.03;8.57;;;;;;;;;;5098992;28;20079;-74
2023/06/11 03:01:47;;;;;;;12.73;8.18;;;;;;;;;;5117158;28;20669;-76
2023/06/11 03:04:13;;;;;;;12.27;8.65;;;;;;;;;;5099573;28;20063;-73
2023/06/11 03:06:39;;;;;;;12.37;8.77;;;;;;;;;;5099056;28;20100;-73
2023/06/11 03:09:06;;;;;;;13.10;8.65;;;;;;;;;;5117010;28;20688;-73
2023/06/11 03:11:32;;;;;;;12.77;8.63;;;;;;;;;;5098671;28;20493;-73
2023/06/11 03:13:58;;;;;;;13.53;8.63;;;;;;;;;;5082040;28;20130;-73
2023/06/11 03:16:24;;;;;;;11.85;8.93;;;;;;;;;;5116957;28;20284;-73
2023/06/11 03:18:50;;;;;;;13.95;8.70;;;;;;;;;;5098661;28;20069;-79
2023/06/11 03:21:16;;;;;;;12.20;8.80;;;;;;;;;;5116769;28;20043;-73
2023/06/11 03:23:42;;;;;;;12.45;8.90;;;;;;;;;;5116678;28;20506;-73
2023/06/11 03:26:08;;;;;;;11.23;8.57;;;;;;;;;;5098717;28;20463;-73
2023/06/11 03:28:35;;;;;;;13.25;8.80;;;;;;;;;;5098385;28;20047;-73
2023/06/11 03:31:02;;;;;;;13.68;9.35;;;;;;;;;;5098386;28;20050;-72
2023/06/11 03:33:28;;;;;;;11.38;8.18;;;;;;;;;;5098913;28;20044;-74
2023/06/11 03:35:54;;;;;;;12.75;9.18;;;;;;;;;;5098572;28;20070;-74
2023/06/11 03:38:20;;;;;;;13.98;8.98;;;;;;;;;;5116468;28;20097;-74
2023/06/11 03:40:46;;;;;;;12.05;8.73;;;;;;;;;;5098144;28;20044;-74
2023/06/11 03:43:12;;;;;;;13.43;8.73;;;;;;;;;;5064917;28;20111;-74
2023/06/11 03:45:39;;;;;;;13.60;9.03;;;;;;;;;;5098221;28;20401;-74
2023/06/11 03:48:05;;;;;;;15.30;9.75;;;;;;;;;;5081154;28;20055;-73
2023/06/11 03:50:31;;;;;;;17.10;9.20;;;;;;;;;;5081282;28;20047;-74
2023/06/11 03:52:57;;;;;;;11.77;9.23;;;;;;;;;;5116220;28;20043;-74
2023/06/11 03:55:24;;;;;;;14.27;9.25;;;;;;;;;;5116437;28;20293;-74
2023/06/11 03:57:50;;;;;;;12.50;8.98;;;;;;;;;;5081516;28;20074;-74
2023/06/11 04:00:16;;;;;;;13.50;9.68;;;;;;;;;;5097309;28;20473;-74
2023/06/11 04:02:42;;;;;;;15.20;9.38;;;;;;;;;;5116063;28;20481;-74
2023/06/11 04:05:08;;;;;;;14.23;9.23;;;;;;;;;;5098023;28;20039;-74
2023/06/11 04:07:35;;;;;;;12.47;8.77;;;;;;;;;;5115905;28;20795;-74
2023/06/11 04:10:02;;;;;;;14.98;9.38;;;;;;;;;;5098116;28;20044;-74
2023/06/11 04:12:28;;;;;;;12.60;9.40;;;;;;;;;;5115854;28;20051;-73
2023/06/11 04:14:54;;;;;;;16.58;9.75;;;;;;;;;;5098101;28;20489;-73
2023/06/11 04:17:20;;;;;;;11.65;8.80;;;;;;;;;;5098135;28;20047;-73
2023/06/11 04:19:46;;;;;;;13.33;9.17;;;;;;;;;;5115806;28;20051;-72
2023/06/11 04:22:13;;;;;;;14.63;9.32;;;;;;;;;;5115478;28;20048;-74
2023/06/11 04:24:39;;;;;;;13.80;9.63;;;;;;;;;;5097688;28;20135;-72
2023/06/11 04:27:06;;;;;;;15.48;9.27;;;;;;;;;;5115838;28;20063;-74
2023/06/11 04:29:33;;;;;;;15.13;9.50;;;;;;;;;;5097275;28;20054;-74
2023/06/11 04:32:03;;;;;;;14.77;9.85;;;;;;;;;;5115526;28;20102;-74
2023/06/11 04:34:29;;;;;;;14.95;9.82;;;;;;;;;;5115486;28;20047;-73
2023/06/11 04:36:58;;;;;;;17.05;9.95;;;;;;;;;;5081299;28;20184;-74
2023/06/11 04:39:24;;;;;;;13.90;9.98;;;;;;;;;;5080157;28;20047;-73
2023/06/11 04:41:51;;;;;;;14.57;9.85;;;;;;;;;;5115318;28;20048;-73
2023/06/11 04:44:20;;;;;;;13.20;9.55;;;;;;;;;;5080334;28;20071;-73
2023/06/11 04:46:47;;;;;;;13.43;9.93;;;;;;;;;;5080996;28;20193;-73
2023/06/11 04:49:20;;;;;;;15.35;10.20;;;;;;;;;;5096486;28;20611;-74
2023/06/11 04:51:48;;;;;;;16.13;10.73;;;;;;;;;;5080463;28;20042;-73
2023/06/11 04:54:17;;;;;;;13.52;10.57;;;;;;;;;;5097010;28;20056;-74
2023/06/11 04:56:43;;;;;;;14.50;10.43;;;;;;;;;;5079891;28;20074;-74
2023/06/11 04:59:09;;;;;;;15.38;10.20;;;;;;;;;;5115257;28;20159;-74
2023/06/11 05:01:37;;;;;;;14.20;10.27;;;;;;;;;;5115707;28;20048;-74
2023/06/11 05:04:04;;;;;;;14.02;10.10;;;;;;;;;;5114791;28;20050;-75
2023/06/11 05:06:30;;;;;;;15.52;10.00;;;;;;;;;;5080705;28;20083;-73
2023/06/11 05:08:56;;;;;;;14.32;10.48;;;;;;;;;;5080610;28;20047;-73
2023/06/11 05:11:22;;;;;;;13.63;10.50;;;;;;;;;;5114525;28;20052;-73
2023/06/11 05:13:48;;;;;;;14.88;10.70;;;;;;;;;;5115410;28;20483;-73
2023/06/11 05:16:15;;;;;;;14.38;11.25;;;;;;;;;;5079587;28;20150;-73
2023/06/11 05:18:42;;;;;;;14.77;10.85;;;;;;;;;;5114804;28;20123;-73
2023/06/11 05:21:09;;;;;;;14.60;10.52;;;;;;;;;;5096477;28;20391;-74
2023/06/11 05:23:35;;;;;;;15.32;11.25;;;;;;;;;;5096775;28;20166;-73
2023/06/11 05:26:08;;;;;;;16.45;10.68;;;;;;;;;;5096271;28;20075;-72
2023/06/11 05:28:35;;;;;;;15.07;10.60;;;;;;;;;;5115089;28;20047;-73
2023/06/11 05:31:03;;;;;;;15.43;11.32;;;;;;;;;;5096090;28;20234;-72
2023/06/11 05:33:30;;;;;;;14.57;10.77;;;;;;;;;;5096633;28;20058;-73
2023/06/11 05:35:56;;;;;;;15.43;11.15;;;;;;;;;;5114324;28;20051;-74
2023/06/11 05:38:23;;;;;;;15.93;11.07;;;;;;;;;;5096841;28;20397;-75
2023/06/11 05:40:50;;;;;;;14.95;11.52;;;;;;;;;;5114121;28;20043;-74
2023/06/11 05:43:16;;;;;;;14.80;10.85;;;;;;;;;;5113860;28;20040;-74
2023/06/11 05:45:48;;;;;;;16.52;11.07;;;;;;;;;;5114353;28;20484;-75
2023/06/11 05:48:15;;;;;;;13.77;10.70;;;;;;;;;;5114025;28;20126;-74
2023/06/11 05:50:41;;;;;;;15.10;10.73;;;;;;;;;;5114278;28;20092;-74
2023/06/11 05:53:09;;;;;;;15.00;11.05;;;;;;;;;;5096062;28;20051;-74
2023/06/11 05:55:37;;;;;;;14.38;10.80;;;;;;;;;;5114431;28;20052;-75
2023/06/11 05:58:03;;;;;;;14.23;10.57;;;;;;;;;;5096025;28;20052;-73
2023/06/11 06:00:30;;;;;;;20.40;10.73;;;;;;;;;;5096405;28;20092;-73
2023/06/11 06:02:56;;;;;;;14.90;9.38;;;;;;;;;;5095698;28;20047;-73
2023/06/11 06:05:22;;;;;;;17.00;11.00;;;;;;;;;;5095825;28;20389;-73
2023/06/11 06:07:49;;;;;;;15.45;10.00;;;;;;;;;;5096633;28;20139;-74
2023/06/11 06:10:15;;;;;;;16.35;9.90;;;;;;;;;;5113696;28;20067;-74
2023/06/11 06:12:41;;;;;;;13.65;9.80;;;;;;;;;;5095796;28;20035;-74
2023/06/11 06:15:07;;;;;;;13.90;10.63;;;;;;;;;;5114591;28;20367;-73
2023/06/11 06:17:33;;;;;;;12.88;9.25;;;;;;;;;;5113742;28;20047;-72
2023/06/11 06:19:59;;;;;;;14.30;9.95;;;;;;;;;;5095784;28;20526;-75
2023/06/11 06:22:25;;;;;;;12.93;10.15;;;;;;;;;;5095496;28;20051;-72
2023/06/11 06:24:51;;;;;;;12.05;9.70;;;;;;;;;;5098488;28;20083;-74
2023/06/11 06:27:18;;;;;;;13.07;9.20;;;;;;;;;;5118439;28;20062;-74
2023/06/11 06:29:44;;;;;;;15.60;10.30;;;;;;;;;;5117709;28;20052;-73
2023/06/11 06:32:11;;;;;;;13.20;9.75;;;;;;;;;;5100031;28;20043;-75
2023/06/11 06:34:37;;;;;;;12.50;9.57;;;;;;;;;;5083225;28;20044;-71
2023/06/11 06:37:03;;;;;;;15.20;9.65;;;;;;;;;;5099770;28;20107;-72
2023/06/11 06:39:29;;;;;;;14.50;9.65;;;;;;;;;;5099434;28;20046;-73
2023/06/11 06:41:56;;;;;;;12.93;9.50;;;;;;;;;;5099614;28;20397;-74
2023/06/11 06:44:22;;;;;;;13.57;9.05;;;;;;;;;;5118188;28;20047;-76
2023/06/11 06:46:48;;;;;;;12.48;9.20;;;;;;;;;;5100336;28;20165;-73
2023/06/11 06:49:15;;;;;;;12.32;9.20;;;;;;;;;;5066669;28;20040;-74
2023/06/11 06:51:41;;;;;;;16.73;9.25;;;;;;;;;;5099201;28;20051;-74
2023/06/11 06:54:07;;;;;;;11.35;8.63;;;;;;;;;;5082368;28;20473;-74
2023/06/11 06:56:33;;;;;;;14.38;9.05;;;;;;;;;;5099207;28;20044;-73
2023/06/11 06:58:59;;;;;;;14.05;9.23;;;;;;;;;;5117464;28;20096;-73
2023/06/11 07:01:25;;;;;;;13.88;8.98;;;;;;;;;;5116901;28;20485;-73
2023/06/11 07:03:52;;;;;;;12.60;9.15;;;;;;;;;;5065706;28;20055;-74
2023/06/11 07:06:18;;;;;;;15.18;8.88;;;;;;;;;;5116819;28;20509;-73
2023/06/11 07:08:44;;;;;;;12.05;8.88;;;;;;;;;;5116859;28;20046;-74
2023/06/11 07:11:10;;;;;;;13.65;9.13;;;;;;;;;;5099056;28;20046;-71
2023/06/11 07:13:36;;;;;;;13.18;9.10;;;;;;;;;;5117206;28;20047;-73
2023/06/11 07:16:02;;;;;;;12.55;8.98;;;;;;;;;;5116888;28;20139;-72
2023/06/11 07:18:29;;;;;;;13.00;9.10;;;;;;;;;;5099612;28;20100;-72
2023/06/11 07:20:55;;;;;;;10.63;7.97;;;;;;;;;;5098915;28;20078;-73
2023/06/11 07:23:21;;;;;;;11.65;8.50;;;;;;;;;;5081927;28;20092;-73
2023/06/11 07:25:48;;;;;;;12.32;8.02;;;;;;;;;;5116946;28;20056;-78
2023/06/11 07:28:15;;;;;;;14.32;9.10;;;;;;;;;;5098737;28;20044;-73
2023/06/11 07:30:42;;;;;;;13.52;9.07;;;;;;;;;;5099095;28;20043;-73
2023/06/11 07:33:08;;;;;;;13.57;8.30;;;;;;;;;;5117264;28;20122;-73
2023/06/11 07:35:34;;;;;;;;;;;;;;;;;;5116925;28;20047;-72
2023/06/11 07:38:01;;;;;;;12.30;8.75;;;;;;;;;;5098382;28;19923;-73
2023/06/11 07:40:27;;;;;;;12.00;7.97;;;;;;;;;;5098339;28;20039;-78
2023/06/11 07:42:53;;;;;;;11.43;8.18;;;;;;;;;;5081463;28;20134;-73
2023/06/11 07:45:20;;;;;;;11.55;8.07;;;;;;;;;;5117031;28;20451;-75
2023/06/11 07:47:46;;;;;;;;;;;;;;;;;;5116610;28;20066;-71
2023/06/11 07:50:12;;;;;;;13.07;7.90;;;;;;;;;;5098527;28;20026;-73
2023/06/11 07:52:38;;;;;;;9.68;7.50;;;;;;;;;;5098095;28;20047;-72
2023/06/11 07:55:04;;;;;;;10.88;7.80;;;;;;;;;;5097796;28;20044;-73
2023/06/11 07:57:30;;;;;;;10.50;7.80;;;;;;;;;;5097666;28;20066;-72
2023/06/11 07:59:56;;;;;;;12.95;7.97;;;;;;;;;;5081341;28;20043;-72
2023/06/11 08:02:23;;;;;;;11.02;7.70;;;;;;;;;;5081165;28;20071;-71
2023/06/11 08:04:49;;;;;;;12.32;7.20;;;;;;;;;;5115836;28;20050;-72
2023/06/11 08:07:15;;;;;;;10.85;7.22;;;;;;;;;;5098010;28;20438;-73
2023/06/11 08:09:41;;;;;;;11.35;7.28;;;;;;;;;;5115635;28;20046;-74
2023/06/11 08:12:08;;;;;;;10.65;7.20;;;;;;;;;;5097655;28;20044;-72
2023/06/11 08:14:34;;;;;;;11.02;8.02;;;;;;;;;;5097684;28;20087;-73
2023/06/11 08:17:00;;;;;;;9.95;7.70;;;;;;;;;;5081015;28;20040;-73
2023/06/11 08:19:27;;;;;;;9.43;7.50;;;;;;;;;;5115910;28;20075;-73
2023/06/11 08:21:56;;;;;;;11.02;7.10;;;;;;;;;;5098170;28;20043;-73
2023/06/11 08:24:22;;;;;;;10.00;7.28;;;;;;;;;;5097229;28;20119;-74
2023/06/11 08:26:49;;;;;;;10.07;7.40;;;;;;;;;;5115297;28;20071;-72
2023/06/11 08:29:15;;;;;;;;;;;;;;;;;;5097755;28;20048;-73
2023/06/11 08:31:41;;;;;;;11.00;7.75;;;;;;;;;;5115397;28;19919;-72
2023/06/11 08:34:07;;;;;;;10.50;7.45;;;;;;;;;;5098125;28;20101;-76
2023/06/11 08:36:33;;;;;;;9.65;7.68;;;;;;;;;;5080727;28;20104;-73
2023/06/11 08:39:00;;;;;;;;;;;;;;;;;;5081006;28;20047;-72
2023/06/11 08:41:26;;;;;;;10.68;6.97;;;;;;;;;;5081141;28;19919;-71
2023/06/11 08:43:52;;;;;;;10.02;7.32;;;;;;;;;;5097155;28;20092;-72
2023/06/11 08:46:20;;;;;;;8.98;6.95;;;;;;;;;;5096536;28;20036;-73
2023/06/11 08:48:46;;;;;;;10.02;7.90;;;;;;;;;;5097222;28;20079;-70
2023/06/11 08:51:13;;;;;;;8.73;6.85;;;;;;;;;;5097661;28;20058;-75
2023/06/11 08:53:40;;;;;;;13.32;7.10;;;;;;;;;;5079527;28;20126;-73
2023/06/11 08:56:06;;;;;;;9.52;7.05;;;;;;;;;;5080595;28;20048;-72
2023/06/11 08:58:32;;;;;;;;;;;;;;;;;;5096824;28;20493;-73
2023/06/11 09:00:58;;;;;;;11.52;7.07;;;;;;;;;;5114795;28;19965;-73
2023/06/11 09:03:25;;;;;;;11.35;7.00;;;;;;;;;;5114912;28;20044;-72
2023/06/11 09:05:51;;;;;;;;;;;;;;;;;;5115135;28;20054;-72
2023/06/11 09:08:17;;;;;;;;;;;;;;;;;;5080334;28;20272;-73
2023/06/11 09:10:50;;;;;;;9.88;6.32;;;;;;;;;;5096411;28;19965;-73
2023/06/11 09:13:19;;;;;;;8.75;6.53;;;;;;;;;;5096647;28;20044;-74
2023/06/11 09:15:49;;;;;;;9.90;6.50;;;;;;;;;;5097134;28;20067;-78
2023/06/11 09:18:22;;;;;;;11.45;6.60;;;;;;;;;;5097275;28;20130;-73
2023/06/11 09:20:56;;;;;;;9.02;6.75;;;;;;;;;;5096358;28;20051;-74
2023/06/11 09:23:26;;;;;;;9.55;6.85;;;;;;;;;;5096414;28;20051;-74
2023/06/11 09:25:52;;;;;;;10.52;6.22;;;;;;;;;;5092588;28;20142;-73
2023/06/11 09:28:18;;;;;;;7.15;5.70;;;;;;;;;;5092495;28;20569;-74
2023/06/11 09:30:57;;;;;;;8.18;6.25;;;;;;;;;;5093831;28;20048;-75
2023/06/11 09:33:23;;;;;;;10.35;6.65;;;;;;;;;;5092491;28;20550;-74
2023/06/11 09:35:50;;;;;;;11.38;6.72;;;;;;;;;;5093984;28;20116;-73
2023/06/11 09:38:17;;;;;;;10.90;6.55;;;;;;;;;;5093959;28;20094;-74
2023/06/11 09:40:47;;;;;;;8.73;6.40;;;;;;;;;;5093810;28;20047;-74
2023/06/11 09:43:13;;;;;;;8.80;6.28;;;;;;;;;;5092835;28;20071;-73
2023/06/11 09:45:40;;;;;;;12.15;6.50;;;;;;;;;;5075899;28;20040;-75
2023/06/11 09:48:06;;;;;;;8.80;6.00;;;;;;;;;;5092972;28;20048;-74
2023/06/11 09:50:32;;;;;;;;;;;;;;;;;;5092981;28;20379;-75
2023/06/11 09:53:01;;;;;;;;;;;;;;;;;;5094386;28;19926;-73
2023/06/11 09:55:28;;;;;;;8.93;5.10;;;;;;;;;;5093083;28;19977;-74
2023/06/11 09:57:54;;;;;;;7.65;5.85;;;;;;;;;;5092058;28;20143;-73
2023/06/11 10:00:20;;;;;;;6.57;5.53;;;;;;;;;;5093059;28;20066;-73
2023/06/11 10:02:47;;;;;;;8.43;5.60;;;;;;;;;;5092032;28;20513;-78
2023/06/11 10:05:13;;;;;;;7.93;5.40;;;;;;;;;;5093999;28;20044;-74
2023/06/11 10:07:45;;;;;;;10.93;5.80;;;;;;;;;;5092699;28;20076;-75
2023/06/11 10:10:12;;;;;;;8.32;5.68;;;;;;;;;;5093400;28;20044;-74
2023/06/11 10:12:38;;;;;;;6.30;5.43;;;;;;;;;;5092578;28;20052;-73
2023/06/11 10:15:05;;;;;;;9.52;5.60;;;;;;;;;;5075445;28;20056;-73
2023/06/11 10:17:32;;;;;;;10.00;5.50;;;;;;;;;;5093508;28;20052;-75
2023/06/11 10:19:58;;;;;;;7.35;5.57;;;;;;;;;;5093332;28;20044;-74
2023/06/11 10:22:34;;;;;;;6.50;4.50;;;;;;;;;;5075520;28;20152;-73
2023/06/11 10:25:01;;;;;;;7.63;4.60;;;;;;;;;;5092308;28;20126;-74
2023/06/11 10:27:37;;;;;;;6.78;4.57;;;;;;;;;;5112657;28;20090;-73
2023/06/11 10:30:04;;;;;;;7.35;4.80;;;;;;;;;;5095517;28;20135;-75
2023/06/11 10:32:30;;;;;;;8.90;4.78;;;;;;;;;;5113395;28;20044;-73
2023/06/11 10:35:01;;;;;;;9.52;4.88;;;;;;;;;;5095343;28;20100;-76
2023/06/11 10:37:27;;;;;;;6.82;4.90;;;;;;;;;;5095777;28;20043;-74
2023/06/11 10:39:54;;;;;;;7.75;5.20;;;;;;;;;;5113531;28;20047;-76
2023/06/11 10:42:36;;;;;;;7.63;4.88;;;;;;;;;;5114089;28;20055;-74
2023/06/11 10:45:05;;;;;;;7.55;4.55;;;;;;;;;;5095548;28;20044;-78
2023/06/11 10:47:40;;;;;;;7.13;4.75;;;;;;;;;;5078549;28;20043;-75
2023/06/11 10:50:07;;;;;;;7.13;4.90;;;;;;;;;;5113551;28;20046;-73
2023/06/11 10:52:46;;;;;;;9.30;4.85;;;;;;;;;;5113644;28;20130;-74
2023/06/11 10:55:13;;;;;;;8.88;4.80;;;;;;;;;;5096308;28;20220;-77
2023/06/11 10:57:39;;;;;;;6.85;4.65;;;;;;;;;;5095263;28;20046;-75
2023/06/11 11:00:07;;;;;;;11.50;4.57;;;;;;;;;;5078378;28;20043;-74
2023/06/11 11:02:34;;;;;;;6.07;4.53;;;;;;;;;;5096153;28;20043;-74
2023/06/11 11:05:00;;;;;;;;;;;;;;;;;;5095732;28;20044;-73
2023/06/11 11:07:34;;;;;;;7.07;4.22;;;;;;;;;;5113459;28;19926;-74
2023/06/11 11:10:01;;;;;;;8.68;4.72;;;;;;;;;;5096159;28;20496;-74
2023/06/11 11:12:27;;;;;;;7.13;4.80;;;;;;;;;;5099050;28;20130;-74
2023/06/11 11:14:53;;;;;;;8.40;4.50;;;;;;;;;;5117881;28;20044;-76
2023/06/11 11:17:19;;;;;;;6.32;4.63;;;;;;;;;;5098384;28;20035;-73
2023/06/11 11:19:47;;;;;;;9.15;4.93;;;;;;;;;;5099658;28;20050;-83
2023/06/11 11:22:13;;;;;;;8.77;4.35;;;;;;;;;;5099259;28;20055;-72
2023/06/11 11:24:39;;;;;;;6.97;4.40;;;;;;;;;;5099019;28;20043;-74
2023/06/11 11:27:06;;;;;;;9.70;4.63;;;;;;;;;;5098416;28;20566;-71
2023/06/11 11:29:32;;;;;;;8.20;4.93;;;;;;;;;;5099047;28;20112;-71
2023/06/11 11:31:59;;;;;;;11.90;4.90;;;;;;;;;;5116816;28;20135;-74
2023/06/11 11:34:27;;;;;;;8.55;4.60;;;;;;;;;;5081939;28;20123;-72
2023/06/11 11:36:56;;;;;;;6.50;5.10;;;;;;;;;;5116428;28;20132;-73
2023/06/11 11:39:22;;;;;;;8.13;4.43;;;;;;;;;;5098551;28;20043;-73
2023/06/11 11:41:49;;;;;;;7.82;5.15;;;;;;;;;;5116925;28;20126;-72
2023/06/11 11:44:15;;;;;;;7.70;5.55;;;;;;;;;;5098223;28;20397;-72
2023/06/11 11:46:41;;;;;;;8.30;5.05;;;;;;;;;;5098533;28;20104;-71
2023/06/11 11:49:08;;;;;;;8.90;5.28;;;;;;;;;;5098109;28;20055;-72
2023/06/11 11:51:38;;;;;;;8.80;4.63;;;;;;;;;;5080997;28;20521;-72
2023/06/11 11:54:05;;;;;;;10.48;4.38;;;;;;;;;;5116177;28;20069;-73
2023/06/11 11:56:35;;;;;;;6.55;4.85;;;;;;;;;;5116297;28;20051;-72
2023/06/11 11:59:01;;;;;;;6.65;4.70;;;;;;;;;;5098285;28;20044;-71
2023/06/11 12:01:32;;;;;;;9.95;4.72;;;;;;;;;;5115853;28;20493;-72
2023/06/11 12:04:02;;;;;;;7.30;4.80;;;;;;;;;;5116687;28;20096;-72
2023/06/11 12:06:30;;;;;;;7.05;4.60;;;;;;;;;;5081667;28;20477;-73
2023/06/11 12:08:56;;;;;;;9.60;5.22;;;;;;;;;;5097719;28;20063;-72
2023/06/11 12:11:22;;;;;;;7.15;5.13;;;;;;;;;;5081425;28;20047;-73
2023/06/11 12:13:48;;;;;;;8.90;5.07;;;;;;;;;;5116504;28;20047;-73
2023/06/11 12:16:15;;;;;;;9.55;5.10;;;;;;;;;;5116375;28;20082;-73
2023/06/11 12:18:41;;;;;;;9.85;5.32;;;;;;;;;;5097843;28;20051;-70
2023/06/11 12:21:07;;;;;;;;;;;;;;;;;;5080169;28;20488;-72
2023/06/11 12:23:33;;;;;;;6.93;4.63;;;;;;;;;;5080536;28;19969;-75
2023/06/11 12:26:01;;;;;;;10.05;5.30;;;;;;;;;;5097508;28;20055;-70
2023/06/11 12:28:27;;;;;;;9.18;5.25;;;;;;;;;;5115526;28;20082;-72
2023/06/11 12:30:53;;;;;;;8.02;5.18;;;;;;;;;;5115501;28;20484;-73
2023/06/11 12:33:19;;;;;;;10.13;4.85;;;;;;;;;;5115478;28;20043;-73
2023/06/11 12:35:45;;;;;;;8.48;4.70;;;;;;;;;;5115570;28;20043;-74
2023/06/11 12:38:13;;;;;;;8.30;4.80;;;;;;;;;;5080663;28;20055;-74
2023/06/11 12:40:39;;;;;;;8.20;4.57;;;;;;;;;;5080924;28;20055;-71
2023/06/11 12:43:06;;;;;;;6.03;4.60;;;;;;;;;;5080825;28;20050;-73
2023/06/11 12:45:35;;;;;;;6.05;4.65;;;;;;;;;;5115033;28;20551;-72
2023/06/11 12:48:01;;;;;;;7.55;4.82;;;;;;;;;;5098295;28;20086;-72
2023/06/11 12:50:27;;;;;;;7.03;4.90;;;;;;;;;;5115039;28;20040;-72
2023/06/11 12:52:53;;;;;;;7.53;4.88;;;;;;;;;;5115182;28;20035;-74
2023/06/11 12:55:20;;;;;;;8.13;5.07;;;;;;;;;;5097347;28;20051;-73
2023/06/11 12:57:46;;;;;;;8.07;4.70;;;;;;;;;;5097020;28;20047;-75
2023/06/11 13:00:12;;;;;;;8.70;5.00;;;;;;;;;;5080857;28;20396;-71
2023/06/11 13:02:42;;;;;;;8.93;4.20;;;;;;;;;;5096608;28;20048;-72
2023/06/11 13:05:08;;;;;;;9.95;5.20;;;;;;;;;;5097683;28;20047;-72
2023/06/11 13:07:34;;;;;;;9.40;5.05;;;;;;;;;;5096578;28;20050;-71
2023/06/11 13:10:00;;;;;;;11.82;5.00;;;;;;;;;;5096341;28;20047;-73
2023/06/11 13:12:27;;;;;;;9.52;4.63;;;;;;;;;;5089912;28;20077;-74
2023/06/11 13:14:56;;;;;;;7.43;4.88;;;;;;;;;;5128162;28;20055;-75
2023/06/11 13:17:23;;;;;;;10.10;4.95;;;;;;;;;;5108221;28;20059;-72
2023/06/11 13:19:54;;;;;;;10.57;4.88;;;;;;;;;;5108202;28;20126;-74
2023/06/11 13:22:21;;;;;;;6.90;4.80;;;;;;;;;;5124134;28;20108;-72
2023/06/11 13:24:48;;;;;;;6.97;5.15;;;;;;;;;;5126966;28;20043;-73
2023/06/11 13:27:15;;;;;;;10.93;5.07;;;;;;;;;;5097443;28;20088;-69
2023/06/11 13:29:41;;;;;;;;;;;;;;;;;;5093613;28;20058;-72
2023/06/11 13:32:07;;;;;;;9.02;5.50;;;;;;;;;;5094118;28;20010;-73
2023/06/11 13:34:33;;;;;;;8.65;5.55;;;;;;;;;;5093036;28;20048;-71
2023/06/11 13:36:59;;;;;;;8.38;5.15;;;;;;;;;;5092433;28;20082;-73
2023/06/11 13:39:25;;;;;;;;;;;;;;;;;;5076207;28;20105;-70
2023/06/11 13:41:52;;;;;;;7.05;4.80;;;;;;;;;;5093592;28;20465;-75
2023/06/11 13:44:18;;;;;;;9.00;5.25;;;;;;;;;;5094545;28;20114;-72
2023/06/11 13:46:44;;;;;;;;;;;;;;;;;;5075962;28;20055;-72
2023/06/11 13:49:11;;;;;;;9.60;5.90;;;;;;;;;;5075867;28;19920;-73
2023/06/11 13:51:37;;;;;;;9.27;5.55;;;;;;;;;;5092439;28;20478;-72
2023/06/11 13:54:03;;;;;;;;;;;;;;;;;;5094111;28;20048;-73
2023/06/11 13:56:29;;;;;;;11.35;5.35;;;;;;;;;;5110341;28;20350;-72
2023/06/11 13:58:55;;;;;;;7.47;5.40;;;;;;;;;;5092523;28;20055;-74
2023/06/11 14:01:21;;;;;;;6.65;5.18;;;;;;;;;;5059791;28;20063;-72
2023/06/11 14:03:47;;;;;;;;;;;;;;;;;;5093902;28;20090;-75
2023/06/11 14:06:14;;;;;;;8.77;4.90;;;;;;;;;;5094431;28;19920;-73
2023/06/11 14:08:40;;;;;;;7.68;5.10;;;;;;;;;;5093593;28;20051;-75
2023/06/11 14:11:06;;;;;;;8.38;5.15;;;;;;;;;;5092632;28;20051;-71
2023/06/11 14:13:32;;;;;;;;;;;;;;;;;;5093991;28;20052;-71
2023/06/11 14:15:58;;;;;;;9.55;5.55;;;;;;;;;;5093341;28;19920;-71
2023/06/11 14:18:24;;;;;;;;;;;;;;;;;;5092678;28;20059;-72
2023/06/11 14:20:50;;;;;;;8.88;5.18;;;;;;;;;;5092732;28;19920;-72
2023/06/11 14:23:16;;;;;;;;;;;;;;;;;;5093594;28;20054;-72
2023/06/11 14:25:43;;;;;;;12.35;5.70;;;;;;;;;;5093895;28;19924;-71
2023/06/11 14:28:09;;;;;;;8.07;5.15;;;;;;;;;;5114187;28;20090;-72
2023/06/11 14:30:36;;;;;;;9.82;6.22;;;;;;;;;;5078435;28;20047;-71
2023/06/11 14:33:02;;;;;;;;;;;;;;;;;;5114083;28;20081;-69
2023/06/11 14:35:28;;;;;;;8.75;5.00;;;;;;;;;;5095299;28;19926;-72
2023/06/11 14:37:54;;;;;;;;;;;;;;;;;;5079067;28;20055;-72
2023/06/11 14:40:21;;;;;;;8.02;4.78;;;;;;;;;;5095717;28;20260;-70